createdAt,value
2023-02-27T00:00:04.349Z,98.50
2023-02-27T00:02:32.180Z,98.40
2023-02-27T00:05:00.909Z,98.20
2023-02-27T00:07:29.031Z,98.50
2023-02-27T00:09:56.770Z,98.20
2023-02-27T00:12:24.587Z,97.90
2023-02-27T00:14:52.337Z,98.10
2023-02-27T00:17:20.551Z,98.00
2023-02-27T00:19:48.251Z,98.00
2023-02-27T00:22:15.966Z,98.20
2023-02-27T00:24:43.748Z,98.10
2023-02-27T00:27:11.692Z,98.30
2023-02-27T00:29:39.663Z,98.10
2023-02-27T00:32:07.571Z,98.20
2023-02-27T00:34:35.255Z,98.00
2023-02-27T00:37:03.074Z,98.00
2023-02-27T00:39:30.815Z,97.90
2023-02-27T00:41:58.646Z,97.80
2023-02-27T00:44:26.358Z,98.00
2023-02-27T00:46:54.185Z,98.00
2023-02-27T00:49:21.952Z,98.20
2023-02-27T00:51:49.742Z,98.20
2023-02-27T00:54:17.860Z,98.30
2023-02-27T00:56:45.577Z,98.30
2023-02-27T00:59:13.273Z,98.50
2023-02-27T01:01:41.065Z,98.70
2023-02-27T01:04:08.954Z,99.00
2023-02-27T01:06:36.811Z,99.20
2023-02-27T01:09:04.822Z,99.50
2023-02-27T01:11:32.683Z,99.60
2023-02-27T01:14:01.425Z,99.80
2023-02-27T01:16:29.834Z,99.70
2023-02-27T01:18:57.817Z,99.70
2023-02-27T01:21:26.455Z,99.90
2023-02-27T01:23:54.354Z,99.80
2023-02-27T01:26:22.079Z,99.80
2023-02-27T01:28:49.833Z,99.90
2023-02-27T01:31:17.730Z,99.70
2023-02-27T01:33:45.603Z,99.90
2023-02-27T01:36:13.227Z,99.80
2023-02-27T01:38:41.114Z,99.90
2023-02-27T01:41:08.941Z,99.90
2023-02-27T01:44:07.180Z,99.90
2023-02-27T01:46:37.887Z,99.90
2023-02-27T01:49:29.323Z,99.90
2023-02-27T01:52:06.335Z,99.90
2023-02-27T01:54:39.639Z,99.90
2023-02-27T01:57:08.078Z,99.90
2023-02-27T01:59:37.677Z,99.90
2023-02-27T02:02:11.940Z,99.90
2023-02-27T02:04:40.694Z,99.90
2023-02-27T02:07:15.018Z,99.90
2023-02-27T02:09:47.015Z,99.90
2023-02-27T02:12:17.240Z,99.90
2023-02-27T02:14:45.176Z,99.90
2023-02-27T02:17:24.734Z,99.90
2023-02-27T02:20:11.333Z,99.90
2023-02-27T02:23:05.868Z,99.90
2023-02-27T02:26:03.875Z,99.90
2023-02-27T02:28:50.377Z,99.90
2023-02-27T02:31:40.100Z,99.90
2023-02-27T02:34:22.641Z,99.90
2023-02-27T02:37:02.495Z,99.90
2023-02-27T02:39:45.225Z,99.90
2023-02-27T02:42:49.180Z,99.90
2023-02-27T02:45:38.512Z,99.90
2023-02-27T02:48:21.251Z,99.90
2023-02-27T02:51:00.050Z,99.90
2023-02-27T02:53:58.736Z,99.90
2023-02-27T02:57:04.972Z,99.90
2023-02-27T02:59:44.341Z,99.90
2023-02-27T03:02:21.439Z,99.90
2023-02-27T03:05:04.055Z,99.90
2023-02-27T03:07:39.049Z,99.90
2023-02-27T03:10:19.683Z,99.90
2023-02-27T03:12:59.642Z,99.90
2023-02-27T03:15:50.961Z,99.90
2023-02-27T03:18:24.843Z,99.90
2023-02-27T03:20:57.762Z,99.90
2023-02-27T03:23:44.633Z,99.90
2023-02-27T03:26:18.311Z,99.90
2023-02-27T03:29:03.952Z,99.90
2023-02-27T03:31:40.777Z,99.90
2023-02-27T03:34:38.807Z,99.90
2023-02-27T03:37:34.170Z,99.90
2023-02-27T03:40:08.813Z,99.90
2023-02-27T03:42:47.278Z,99.90
2023-02-27T03:45:30.105Z,99.90
2023-02-27T03:47:58.200Z,99.90
2023-02-27T03:50:26.371Z,99.90
2023-02-27T03:52:54.710Z,99.90
2023-02-27T03:55:32.628Z,99.90
2023-02-27T03:58:00.805Z,99.90
2023-02-27T04:00:29.561Z,99.90
2023-02-27T04:03:00.386Z,99.90
2023-02-27T04:05:29.922Z,99.90
2023-02-27T04:08:22.994Z,99.90
2023-02-27T04:11:12.258Z,99.90
2023-02-27T04:13:43.105Z,99.90
2023-02-27T04:16:33.878Z,99.90
2023-02-27T04:19:47.856Z,99.90
2023-02-27T04:22:39.570Z,99.90
2023-02-27T04:25:13.517Z,99.90
2023-02-27T04:27:47.240Z,99.60
2023-02-27T04:30:27.593Z,99.70
2023-02-27T04:33:21.031Z,99.30
2023-02-27T04:36:00.773Z,99.10
2023-02-27T04:38:39.681Z,99.00
2023-02-27T04:41:18.216Z,99.00
2023-02-27T04:43:47.846Z,99.00
2023-02-27T04:46:17.845Z,99.10
2023-02-27T04:48:54.715Z,98.90
2023-02-27T04:51:27.323Z,99.00
2023-02-27T04:54:00.901Z,98.90
2023-02-27T04:56:34.229Z,98.80
2023-02-27T04:59:17.626Z,98.90
2023-02-27T05:01:56.593Z,98.90
2023-02-27T05:04:30.063Z,98.60
2023-02-27T05:07:01.598Z,98.80
2023-02-27T05:09:49.759Z,98.70
2023-02-27T05:12:24.632Z,98.90
2023-02-27T05:15:15.794Z,98.70
2023-02-27T05:18:05.653Z,98.60
2023-02-27T05:20:59.062Z,98.70
2023-02-27T05:23:52.804Z,98.70
2023-02-27T05:26:35.779Z,98.50
2023-02-27T05:29:14.058Z,98.50
2023-02-27T05:32:01.437Z,98.40
2023-02-27T05:34:57.914Z,98.40
2023-02-27T05:37:34.797Z,98.40
2023-02-27T05:40:08.533Z,98.40
2023-02-27T05:42:45.623Z,98.40
2023-02-27T05:45:27.553Z,98.40
2023-02-27T05:48:30.333Z,98.20
2023-02-27T05:50:59.248Z,98.20
2023-02-27T05:53:34.079Z,98.40
2023-02-27T05:56:04.539Z,98.70
2023-02-27T05:58:38.636Z,98.50
2023-02-27T06:01:07.110Z,98.40
2023-02-27T06:03:37.687Z,98.40
2023-02-27T06:06:11.748Z,98.50
2023-02-27T06:08:39.551Z,98.70
2023-02-27T06:11:07.473Z,98.40
2023-02-27T06:13:36.048Z,98.50
2023-02-27T06:16:04.131Z,98.90
2023-02-27T06:18:31.954Z,98.90
2023-02-27T06:21:00.208Z,99.10
2023-02-27T06:23:28.710Z,99.00
2023-02-27T06:25:56.892Z,99.00
2023-02-27T06:28:25.125Z,98.90
2023-02-27T06:30:57.429Z,99.00
2023-02-27T06:33:26.310Z,99.00
2023-02-27T06:35:54.841Z,99.20
2023-02-27T06:38:23.214Z,99.20
2023-02-27T06:40:52.131Z,99.20
2023-02-27T06:43:23.026Z,99.50
2023-02-27T06:45:54.257Z,99.10
2023-02-27T06:48:22.382Z,99.30
2023-02-27T06:50:54.802Z,99.10
2023-02-27T06:53:23.674Z,99.00
2023-02-27T06:55:51.538Z,99.20
2023-02-27T06:58:19.384Z,99.20
2023-02-27T07:00:47.320Z,99.40
2023-02-27T07:03:15.101Z,99.40
2023-02-27T07:05:43.625Z,99.70
2023-02-27T07:08:11.732Z,99.40
2023-02-27T07:10:40.140Z,99.50
2023-02-27T07:13:07.890Z,99.90
2023-02-27T07:15:35.701Z,99.60
2023-02-27T07:18:03.551Z,99.70
2023-02-27T07:20:31.456Z,99.50
2023-02-27T07:22:59.323Z,99.60
2023-02-27T07:25:27.156Z,99.60
2023-02-27T07:27:55.408Z,99.60
2023-02-27T07:30:23.309Z,99.60
2023-02-27T07:32:51.761Z,99.60
2023-02-27T07:35:19.700Z,99.30
2023-02-27T07:37:48.106Z,99.40
2023-02-27T07:40:15.892Z,99.40
2023-02-27T07:42:43.838Z,99.40
2023-02-27T07:45:11.878Z,99.50
2023-02-27T07:47:39.630Z,99.30
2023-02-27T07:50:07.932Z,99.00
2023-02-27T07:52:35.923Z,98.90
2023-02-27T07:55:04.107Z,98.80
2023-02-27T07:57:31.981Z,98.70
2023-02-27T08:00:00.318Z,99.00
2023-02-27T08:02:28.083Z,99.10
2023-02-27T08:04:55.987Z,99.10
2023-02-27T08:07:24.184Z,98.90
2023-02-27T08:09:52.258Z,98.90
2023-02-27T08:12:20.377Z,98.90
2023-02-27T08:14:48.898Z,99.00
2023-02-27T08:17:16.739Z,99.10
2023-02-27T08:19:44.414Z,98.70
2023-02-27T08:22:12.684Z,98.40
2023-02-27T08:24:40.826Z,98.30
2023-02-27T08:27:08.769Z,98.10
2023-02-27T08:29:36.662Z,98.10
2023-02-27T08:32:05.023Z,97.90
2023-02-27T08:34:32.891Z,97.60
2023-02-27T08:37:00.658Z,97.70
2023-02-27T08:39:28.428Z,97.50
2023-02-27T08:41:56.231Z,97.60
2023-02-27T08:44:23.933Z,97.60
2023-02-27T08:46:51.656Z,97.50
2023-02-27T08:49:21.622Z,97.50
2023-02-27T08:51:49.479Z,97.40
2023-02-27T08:54:18.729Z,97.00
2023-02-27T08:56:47.891Z,96.70
2023-02-27T08:59:16.167Z,97.00
2023-02-27T09:01:43.886Z,96.90
2023-02-27T09:04:11.915Z,96.50
2023-02-27T09:06:40.606Z,96.50
2023-02-27T09:09:08.385Z,96.80
2023-02-27T09:11:38.799Z,96.20
2023-02-27T09:14:06.953Z,95.90
2023-02-27T09:16:34.683Z,96.20
2023-02-27T09:19:02.634Z,96.20
2023-02-27T09:21:30.487Z,95.80
2023-02-27T09:24:02.484Z,95.90
2023-02-27T09:26:44.924Z,95.70
2023-02-27T09:29:13.760Z,96.10
2023-02-27T09:31:41.587Z,95.50
2023-02-27T09:34:09.541Z,95.50
2023-02-27T09:36:37.209Z,95.80
2023-02-27T09:39:05.096Z,94.90
2023-02-27T09:42:00.208Z,95.00
2023-02-27T09:44:47.693Z,94.60
2023-02-27T09:47:45.318Z,94.80
2023-02-27T09:50:32.811Z,95.00
2023-02-27T09:53:01.758Z,94.60
2023-02-27T09:55:35.296Z,94.40
2023-02-27T09:58:21.403Z,94.50
2023-02-27T10:01:04.529Z,94.90
2023-02-27T10:03:58.325Z,94.80
2023-02-27T10:06:38.547Z,94.60
2023-02-27T10:09:30.519Z,94.70
2023-02-27T10:12:07.569Z,93.60
2023-02-27T10:14:56.969Z,93.50
2023-02-27T10:17:43.726Z,93.80
2023-02-27T10:20:22.736Z,94.00
2023-02-27T10:22:52.790Z,93.60
2023-02-27T10:25:31.373Z,93.70
2023-02-27T10:28:11.702Z,93.70
2023-02-27T10:30:40.244Z,94.10
2023-02-27T10:33:28.311Z,93.50
2023-02-27T10:35:56.297Z,93.20
2023-02-27T10:38:53.143Z,93.00
2023-02-27T10:41:22.117Z,93.50
2023-02-27T10:44:00.282Z,93.50
2023-02-27T10:46:31.914Z,92.90
2023-02-27T10:49:10.584Z,93.20
2023-02-27T10:51:38.738Z,92.40
2023-02-27T10:54:25.956Z,92.00
2023-02-27T10:57:02.818Z,91.90
2023-02-27T10:59:36.242Z,92.00
2023-02-27T11:02:22.739Z,92.50
2023-02-27T11:04:56.797Z,92.00
2023-02-27T11:07:32.662Z,91.80
2023-02-27T11:10:23.366Z,91.20
2023-02-27T11:13:21.785Z,90.60
2023-02-27T11:16:18.277Z,90.60
2023-02-27T11:18:49.146Z,91.50
2023-02-27T11:21:29.850Z,91.70
2023-02-27T11:24:07.954Z,91.10
2023-02-27T11:26:41.535Z,91.20
2023-02-27T11:29:19.469Z,90.80
2023-02-27T11:32:04.803Z,91.00
2023-02-27T11:34:40.905Z,91.10
2023-02-27T11:37:32.898Z,91.20
2023-02-27T11:40:05.004Z,90.30
2023-02-27T11:42:36.653Z,90.30
2023-02-27T11:46:11.975Z,89.80
2023-02-27T11:48:37.581Z,90.00
2023-02-27T11:51:11.425Z,89.60
2023-02-27T11:53:48.269Z,89.70
2023-02-27T11:56:21.775Z,89.10
2023-02-27T11:59:10.631Z,88.90
2023-02-27T12:01:56.665Z,89.40
2023-02-27T12:04:34.095Z,89.00
2023-02-27T12:07:18.375Z,88.30
2023-02-27T12:10:15.627Z,87.80
2023-02-27T12:12:43.577Z,88.10
2023-02-27T12:15:30.766Z,87.40
2023-02-27T12:18:50.770Z,86.10
2023-02-27T12:21:41.925Z,86.50
2023-02-27T12:24:36.128Z,86.30
2023-02-27T12:27:12.912Z,85.60
2023-02-27T12:29:48.110Z,85.50
2023-02-27T12:32:31.965Z,85.40
2023-02-27T12:35:02.239Z,84.50
2023-02-27T12:37:33.764Z,83.00
2023-02-27T12:40:07.625Z,82.70
2023-02-27T12:42:55.865Z,87.10
2023-02-27T12:46:01.539Z,86.20
2023-02-27T12:48:38.138Z,84.30
2023-02-27T12:51:23.941Z,83.60
2023-02-27T12:54:01.520Z,81.80
2023-02-27T12:56:41.371Z,81.50
2023-02-27T12:59:24.142Z,82.40
2023-02-27T13:02:00.540Z,82.00
2023-02-27T13:05:00.524Z,83.50
2023-02-27T13:07:31.623Z,83.60
2023-02-27T13:10:02.061Z,84.00
2023-02-27T13:12:47.447Z,83.50
2023-02-27T13:15:27.234Z,82.90
2023-02-27T13:18:28.970Z,81.80
2023-02-27T13:21:08.828Z,82.70
2023-02-27T13:24:12.051Z,82.70
2023-02-27T13:26:47.002Z,82.60
2023-02-27T13:29:18.412Z,82.40
2023-02-27T13:31:55.123Z,85.80
2023-02-27T13:34:33.986Z,85.00
2023-02-27T13:37:08.131Z,84.70
2023-02-27T13:39:41.644Z,84.80
2023-02-27T13:42:33.440Z,84.70
2023-02-27T13:45:03.782Z,84.80
2023-02-27T13:47:31.619Z,82.90
2023-02-27T13:50:05.149Z,83.10
2023-02-27T13:52:38.403Z,83.10
2023-02-27T13:55:37.172Z,81.30
2023-02-27T13:58:05.972Z,82.70
2023-02-27T14:00:38.143Z,82.40
2023-02-27T14:03:27.443Z,81.70
2023-02-27T14:05:58.632Z,82.70
2023-02-27T14:08:29.026Z,82.60
2023-02-27T14:11:11.076Z,83.60
2023-02-27T14:13:51.106Z,84.70
2023-02-27T14:16:37.899Z,84.80
2023-02-27T14:19:18.023Z,85.50
2023-02-27T14:21:56.622Z,85.70
2023-02-27T14:24:49.549Z,85.80
2023-02-27T14:27:27.801Z,88.10
2023-02-27T14:30:00.905Z,87.90
2023-02-27T14:32:37.345Z,86.80
2023-02-27T14:35:06.852Z,86.20
2023-02-27T14:37:36.604Z,86.90
2023-02-27T14:40:06.541Z,86.90
2023-02-27T14:42:49.463Z,87.20
2023-02-27T14:45:25.269Z,87.80
2023-02-27T14:47:53.772Z,88.00
2023-02-27T14:50:36.714Z,87.70
2023-02-27T14:53:06.405Z,87.20
2023-02-27T14:55:37.642Z,87.70
2023-02-27T14:58:08.283Z,86.40
2023-02-27T15:00:43.762Z,86.50
2023-02-27T15:03:48.519Z,87.70
2023-02-27T15:06:21.055Z,86.80
2023-02-27T15:08:54.650Z,86.70
2023-02-27T15:11:23.712Z,86.90
2023-02-27T15:14:04.746Z,86.70
2023-02-27T15:16:40.474Z,87.80
2023-02-27T15:19:30.625Z,88.20
2023-02-27T15:22:05.346Z,87.20
2023-02-27T15:24:49.796Z,88.50
2023-02-27T15:27:24.071Z,88.20
2023-02-27T15:29:57.581Z,89.80
2023-02-27T15:32:34.530Z,89.30
2023-02-27T15:35:12.645Z,88.90
2023-02-27T15:37:44.338Z,88.40
2023-02-27T15:40:19.151Z,88.80
2023-02-27T15:42:47.287Z,89.20
2023-02-27T15:45:24.906Z,89.90
2023-02-27T15:47:52.915Z,89.80
2023-02-27T15:50:36.890Z,90.10
2023-02-27T15:53:29.818Z,90.40
2023-02-27T15:56:11.291Z,90.50
2023-02-27T15:58:53.501Z,90.50
2023-02-27T16:01:24.155Z,90.50
2023-02-27T16:03:54.630Z,90.20
2023-02-27T16:06:30.764Z,90.40
2023-02-27T16:09:16.660Z,90.40
2023-02-27T16:11:44.429Z,90.70
2023-02-27T16:14:42.488Z,91.00
2023-02-27T16:17:30.743Z,91.50
2023-02-27T16:20:02.248Z,92.10
2023-02-27T16:22:30.634Z,92.70
2023-02-27T16:25:09.991Z,93.10
2023-02-27T16:27:39.195Z,93.70
2023-02-27T16:30:11.671Z,93.20
2023-02-27T16:32:46.810Z,93.10
2023-02-27T16:35:23.550Z,93.50
2023-02-27T16:37:53.651Z,94.00
2023-02-27T16:40:26.351Z,93.90
2023-02-27T16:42:54.404Z,93.90
2023-02-27T16:45:26.262Z,94.10
2023-02-27T16:47:59.500Z,93.90
2023-02-27T16:50:34.098Z,93.40
2023-02-27T16:53:01.874Z,93.00
2023-02-27T16:55:30.378Z,93.40
2023-02-27T16:57:59.253Z,94.10
2023-02-27T17:00:27.009Z,94.00
2023-02-27T17:02:54.691Z,93.70
2023-02-27T17:05:24.384Z,93.50
2023-02-27T17:07:52.586Z,93.40
2023-02-27T17:10:24.885Z,93.60
2023-02-27T17:12:53.400Z,94.00
2023-02-27T17:15:21.249Z,94.20
2023-02-27T17:17:49.025Z,94.30
2023-02-27T17:20:18.093Z,94.30
2023-02-27T17:22:45.876Z,94.60
2023-02-27T17:25:14.205Z,94.80
2023-02-27T17:27:45.006Z,95.00
2023-02-27T17:30:14.329Z,95.20
2023-02-27T17:32:42.220Z,95.10
2023-02-27T17:35:10.361Z,95.20
2023-02-27T17:37:38.217Z,95.20
2023-02-27T17:40:08.323Z,95.40
2023-02-27T17:42:37.187Z,95.60
2023-02-27T17:45:06.650Z,95.50
2023-02-27T17:47:35.133Z,95.70
2023-02-27T17:50:04.225Z,95.90
2023-02-27T17:52:32.347Z,96.00
2023-02-27T17:55:00.047Z,96.00
2023-02-27T17:57:28.018Z,96.10
2023-02-27T17:59:55.895Z,96.60
2023-02-27T18:02:23.606Z,96.50
2023-02-27T18:04:51.582Z,96.70
2023-02-27T18:07:19.400Z,96.90
2023-02-27T18:09:47.097Z,97.10
2023-02-27T18:12:14.831Z,97.10
2023-02-27T18:14:42.570Z,97.30
2023-02-27T18:17:13.285Z,97.40
2023-02-27T18:19:42.782Z,97.40
2023-02-27T18:22:11.415Z,97.80
2023-02-27T18:24:39.083Z,97.90
2023-02-27T18:27:06.924Z,98.00
2023-02-27T18:29:34.682Z,98.10
2023-02-27T18:32:02.677Z,98.20
2023-02-27T18:34:30.557Z,98.30
2023-02-27T18:36:58.428Z,98.40
2023-02-27T18:39:26.721Z,98.50
2023-02-27T18:41:54.695Z,98.70
2023-02-27T18:44:22.406Z,99.10
2023-02-27T18:46:50.281Z,98.50
2023-02-27T18:49:17.998Z,98.20
2023-02-27T18:51:45.669Z,99.00
2023-02-27T18:54:15.161Z,98.30
2023-02-27T18:56:43.117Z,98.30
2023-02-27T18:59:12.356Z,98.70
2023-02-27T19:01:40.393Z,99.10
2023-02-27T19:04:09.863Z,99.10
2023-02-27T19:06:41.175Z,99.30
2023-02-27T19:09:12.104Z,99.40
2023-02-27T19:11:40.162Z,99.40
2023-02-27T19:14:12.348Z,99.20
2023-02-27T19:16:40.944Z,99.60
2023-02-27T19:19:10.136Z,99.70
2023-02-27T19:21:37.907Z,99.50
2023-02-27T19:24:07.120Z,99.50
2023-02-27T19:26:35.146Z,99.50
2023-02-27T19:29:03.511Z,99.40
2023-02-27T19:31:31.696Z,99.20
2023-02-27T19:33:59.733Z,99.20
2023-02-27T19:36:29.900Z,98.80
2023-02-27T19:38:58.327Z,98.90
2023-02-27T19:41:26.461Z,98.80
2023-02-27T19:43:54.693Z,99.00
2023-02-27T19:46:28.212Z,99.20
2023-02-27T19:49:02.488Z,99.10
2023-02-27T19:51:30.075Z,99.10
2023-02-27T19:53:57.959Z,98.90
2023-02-27T19:56:28.400Z,99.30
2023-02-27T19:58:56.350Z,98.60
2023-02-27T20:01:31.059Z,98.60
2023-02-27T20:04:00.412Z,98.40
2023-02-27T20:06:30.551Z,98.10
2023-02-27T20:08:59.527Z,97.60
2023-02-27T20:11:31.880Z,97.40
2023-02-27T20:13:59.951Z,97.50
2023-02-27T20:16:30.577Z,97.70
2023-02-27T20:18:58.801Z,97.80
2023-02-27T20:21:28.966Z,97.60
2023-02-27T20:23:58.399Z,98.00
2023-02-27T20:26:31.928Z,97.60
2023-02-27T20:29:08.417Z,97.50
2023-02-27T20:31:38.673Z,97.70
2023-02-27T20:34:07.722Z,97.20
2023-02-27T20:36:35.988Z,97.30
2023-02-27T20:39:05.334Z,97.40
2023-02-27T20:41:34.983Z,97.30
2023-02-27T20:44:04.889Z,97.30
2023-02-27T20:46:32.613Z,97.40
2023-02-27T20:49:02.125Z,97.10
2023-02-27T20:51:36.277Z,97.00
2023-02-27T20:54:07.214Z,96.80
2023-02-27T20:56:38.357Z,96.80
2023-02-27T20:59:09.079Z,96.90
2023-02-27T21:01:38.450Z,96.90
2023-02-27T21:04:06.992Z,96.90
2023-02-27T21:06:35.319Z,97.10
2023-02-27T21:09:06.139Z,97.30
2023-02-27T21:11:34.220Z,97.50
2023-02-27T21:14:09.305Z,97.60
2023-02-27T21:16:38.763Z,97.50
2023-02-27T21:19:07.451Z,97.60
2023-02-27T21:21:36.487Z,97.60
2023-02-27T21:24:05.750Z,97.80
2023-02-27T21:26:38.117Z,98.00
2023-02-27T21:29:13.621Z,98.20
2023-02-27T21:31:45.560Z,98.80
2023-02-27T21:34:16.917Z,98.90
2023-02-27T21:36:45.836Z,99.20
2023-02-27T21:39:18.937Z,99.20
2023-02-27T21:41:48.018Z,99.40
2023-02-27T21:44:18.690Z,99.50
2023-02-27T21:46:47.257Z,99.50
2023-02-27T21:49:25.378Z,99.70
2023-02-27T21:51:53.824Z,99.90
2023-02-27T21:54:22.309Z,99.90
2023-02-27T21:56:50.647Z,99.80
2023-02-27T21:59:21.079Z,99.90
2023-02-27T22:01:48.990Z,99.90
2023-02-27T22:04:19.250Z,99.90
2023-02-27T22:06:48.870Z,99.90
2023-02-27T22:09:17.157Z,99.90
2023-02-27T22:11:45.769Z,99.90
2023-02-27T22:14:13.649Z,99.90
2023-02-27T22:16:42.158Z,99.90
2023-02-27T22:19:14.040Z,99.90
2023-02-27T22:21:41.991Z,99.90
2023-02-27T22:24:09.968Z,99.90
2023-02-27T22:26:38.463Z,99.90
2023-02-27T22:29:07.185Z,99.90
2023-02-27T22:31:37.820Z,99.90
2023-02-27T22:34:12.966Z,99.90
2023-02-27T22:36:41.943Z,99.90
2023-02-27T22:39:11.231Z,99.90
2023-02-27T22:41:40.944Z,99.90
2023-02-27T22:44:09.909Z,99.90
2023-02-27T22:46:40.160Z,99.90
2023-02-27T22:49:23.260Z,99.90
2023-02-27T22:51:52.276Z,99.90
2023-02-27T22:54:22.148Z,99.90
2023-02-27T22:56:52.026Z,99.90
2023-02-27T22:59:20.526Z,99.90
2023-02-27T23:01:49.071Z,99.90
2023-02-27T23:04:19.587Z,99.90
2023-02-27T23:06:47.549Z,99.90
2023-02-27T23:09:18.570Z,99.90
2023-02-27T23:11:46.888Z,99.90
2023-02-27T23:14:15.469Z,99.90
2023-02-27T23:16:45.952Z,99.90
2023-02-27T23:19:18.446Z,99.90
2023-02-27T23:21:46.421Z,99.90
2023-02-27T23:24:16.531Z,99.90
2023-02-27T23:26:47.550Z,99.90
2023-02-27T23:29:15.712Z,99.90
2023-02-27T23:31:43.674Z,99.90
2023-02-27T23:34:11.858Z,99.80
2023-02-27T23:36:39.854Z,99.90
2023-02-27T23:39:08.185Z,99.80
2023-02-27T23:41:36.545Z,99.60
2023-02-27T23:44:04.425Z,99.80
2023-02-27T23:46:32.580Z,99.70
2023-02-27T23:49:02.735Z,99.70
2023-02-27T23:51:31.317Z,98.90
2023-02-27T23:54:00.234Z,98.70
2023-02-27T23:56:30.495Z,98.60
2023-02-27T23:59:01.678Z,98.80
